Time;durP1;ratioP1;P1;durP2;ratioP2;P2;SDS_P1;SDS_P2;PMS_P1;PMS_P2;Temp;Humidity;BMP_temperature;BMP_pressure;BME280_temperature;BME280_humidity;BME280_pressure;Samples;Min_cycle;Max_cycle;Signal;HPM_P1;HPM_P2
2022/03/20 00:00:26;;;;;;;;;;;;;;;16.54;55.54;100593.25;2090349;28;19916;-46
2022/03/20 00:01:27;;;;;;;;;;;;;;;16.55;55.57;100594.97;2094262;28;19916;-48
2022/03/20 00:02:30;;;;;;;;;;;;;;;16.54;55.71;100586.94;2092422;28;19967;-45
2022/03/20 00:03:31;;;;;;;;;;;;;;;16.54;55.71;100587.78;2086195;28;19948;-46
2022/03/20 00:04:32;;;;;;;;;;;;;;;16.54;55.53;100584.22;2092039;28;20227;-47
2022/03/20 00:05:34;;;;;;;;;;;;;;;16.54;55.59;100587.78;2087651;28;19999;-46
2022/03/20 00:06:35;;;;;;;;;;;;;;;16.55;55.51;100585.94;2092587;28;19917;-45
2022/03/20 00:07:35;;;;;;;;;;;;;;;16.54;55.55;100590.53;2099720;28;19916;-46
2022/03/20 00:08:35;;;;;;;;;;;;;;;16.55;55.46;100584.06;2092526;28;19916;-46
2022/03/20 00:09:36;;;;;;;;;;;;;;;16.54;55.62;100585.06;2091725;28;19924;-45
2022/03/20 00:10:37;;;;;;;;;;;;;;;16.55;55.33;100584.06;2100796;28;19965;-47
2022/03/20 00:11:37;;;;;;;;;;;;;;;16.54;55.49;100587.78;2090154;28;19956;-46
2022/03/20 00:12:38;;;;;;;;;;;;;;;16.55;55.37;100583.22;2093147;28;20348;-48
2022/03/20 00:13:39;;;;;;;;;;;;;;;16.55;55.75;100583.22;2087400;28;19920;-46
2022/03/20 00:14:40;;;;;;;;;;;;;;;16.54;55.37;100573.34;2096790;28;20734;-46
2022/03/20 00:15:40;;;;;;;;;;;;;;;16.54;55.45;100576.91;2094418;28;19957;-46
2022/03/20 00:16:40;;;;;;;;;;;;;;;16.54;55.50;100570.63;2091982;28;19927;-47
2022/03/20 00:17:41;;;;;;;;;;;;;;;16.55;55.61;100577.78;2085214;28;20159;-46
2022/03/20 00:18:41;;;;;;;;;;;;;;;16.54;55.47;100574.19;2082856;28;19963;-47
2022/03/20 00:19:41;;;;;;;;;;;;;;;16.54;55.70;100566.03;2092280;28;20330;-47
2022/03/20 00:20:43;;;;;;;;;;;;;;;16.54;55.57;100579.63;2094980;28;19927;-46
2022/03/20 00:21:43;;;;;;;;;;;;;;;16.55;55.44;100573.19;2091014;28;19927;-46
2022/03/20 00:22:43;;;;;;;;;;;;;;;16.54;55.59;100565.16;2092187;28;19912;-46
2022/03/20 00:23:44;;;;;;;;;;;;;;;16.55;55.54;100567.75;2091889;28;19942;-47
2022/03/20 00:24:44;;;;;;;;;;;;;;;16.55;55.49;100562.31;2096539;28;19989;-47
2022/03/20 00:25:45;;;;;;;;;;;;;;;16.56;55.63;100563.16;2094103;28;19924;-46
2022/03/20 00:26:46;;;;;;;;;;;;;;;16.56;55.60;100564.06;2088696;28;19950;-46
2022/03/20 00:27:46;;;;;;;;;;;;;;;16.55;55.74;100556.84;2091472;28;19912;-46
2022/03/20 00:28:47;;;;;;;;;;;;;;;16.56;55.69;100557.72;2088858;28;20596;-46
2022/03/20 00:29:47;;;;;;;;;;;;;;;16.56;55.56;100552.28;2092157;28;19920;-47
2022/03/20 00:30:48;;;;;;;;;;;;;;;16.57;55.50;100554.03;2094747;28;19935;-46
2022/03/20 00:31:48;;;;;;;;;;;;;;;16.56;55.66;100555.88;2088224;28;19921;-47
2022/03/20 00:32:48;;;;;;;;;;;;;;;16.56;55.34;100545.00;2098327;28;20348;-46
2022/03/20 00:33:48;;;;;;;;;;;;;;;16.57;55.57;100554.03;2094869;28;19919;-50
2022/03/20 00:34:49;;;;;;;;;;;;;;;16.57;55.46;100544.00;2094366;28;20459;-46
2022/03/20 00:35:49;;;;;;;;;;;;;;;16.58;55.58;100544.88;2100734;28;19966;-46
2022/03/20 00:36:49;;;;;;;;;;;;;;;16.57;55.50;100544.00;2092945;28;20222;-46
2022/03/20 00:37:50;;;;;;;;;;;;;;;16.58;55.32;100545.72;2092766;28;19923;-46
2022/03/20 00:38:50;;;;;;;;;;;;;;;16.58;55.43;100540.28;2094889;28;20711;-46
2022/03/20 00:39:50;;;;;;;;;;;;;;;16.58;55.34;100539.41;2091756;28;19946;-48
2022/03/20 00:40:51;;;;;;;;;;;;;;;16.58;55.45;100543.00;2091947;28;20368;-46
2022/03/20 00:41:51;;;;;;;;;;;;;;;16.59;55.46;100533.88;2087460;28;19912;-46
2022/03/20 00:42:52;;;;;;;;;;;;;;;16.59;55.31;100536.59;2096862;28;19919;-47
2022/03/20 00:43:52;;;;;;;;;;;;;;;16.59;55.36;100533.00;2088397;28;19920;-46
2022/03/20 00:44:53;;;;;;;;;;;;;;;16.59;55.35;100533.00;2090587;28;19912;-48
2022/03/20 00:45:53;;;;;;;;;;;;;;;16.59;55.32;100531.16;2089660;28;20334;-46
2022/03/20 00:46:53;;;;;;;;;;;;;;;16.59;55.42;100536.59;2088223;28;20575;-46
2022/03/20 00:47:54;;;;;;;;;;;;;;;16.59;55.40;100530.28;2091793;28;19920;-46
2022/03/20 00:48:55;;;;;;;;;;;;;;;16.59;55.51;100539.31;2084651;28;19927;-47
2022/03/20 00:49:55;;;;;;;;;;;;;;;16.59;55.34;100539.31;2087122;28;20406;-46
2022/03/20 00:50:58;;;;;;;;;;;;;;;16.59;55.31;100552.91;2096238;28;19924;-49
2022/03/20 00:51:58;;;;;;;;;;;;;;;16.59;55.36;100547.47;2086891;28;19966;-46
2022/03/20 00:52:59;;;;;;;;;;;;;;;16.59;55.20;100544.75;2088245;28;20281;-46
2022/03/20 00:53:59;;;;;;;;;;;;;;;16.57;55.55;100535.84;2093381;28;19920;-46
2022/03/20 00:54:59;;;;;;;;;;;;;;;16.60;55.31;100548.34;2093263;28;19912;-46
2022/03/20 00:56:00;;;;;;;;;;;;;;;16.59;55.20;100536.59;2091589;28;19928;-46
2022/03/20 00:57:00;;;;;;;;;;;;;;;16.59;55.42;100530.28;2090986;28;19961;-45
2022/03/20 00:58:00;;;;;;;;;;;;;;;16.57;55.58;100535.84;2087739;28;19916;-47
2022/03/20 00:59:01;;;;;;;;;;;;;;;16.58;55.51;100532.09;2092302;28;20407;-46
2022/03/20 01:00:01;;;;;;;;;;;;;;;16.57;55.52;100537.69;2092725;28;19913;-47
2022/03/20 01:01:02;;;;;;;;;;;;;;;16.57;55.69;100532.25;2093033;28;20728;-46
2022/03/20 01:02:04;;;;;;;;;;;;;;;16.56;55.33;100528.69;2087617;28;19970;-46
2022/03/20 01:03:05;;;;;;;;;;;;;;;16.56;55.57;100531.41;2091808;28;19920;-46
2022/03/20 01:04:05;;;;;;;;;;;;;;;16.56;55.61;100534.13;2086891;28;19919;-47
2022/03/20 01:05:06;;;;;;;;;;;;;;;16.56;55.57;100525.06;2091126;28;20345;-45
2022/03/20 01:06:07;;;;;;;;;;;;;;;16.56;55.56;100530.50;2099434;28;20379;-48
2022/03/20 01:07:08;;;;;;;;;;;;;;;16.55;55.35;100532.38;2094465;28;19963;-45
2022/03/20 01:08:09;;;;;;;;;;;;;;;16.56;55.63;100530.50;2095225;28;19974;-47
2022/03/20 01:09:09;;;;;;;;;;;;;;;16.55;55.53;100520.63;2093061;28;19920;-47
2022/03/20 01:10:10;;;;;;;;;;;;;;;16.56;55.52;100531.41;2091118;28;19927;-46
2022/03/20 01:11:10;;;;;;;;;;;;;;;16.54;55.32;100522.47;2099062;28;20026;-45
2022/03/20 01:12:11;;;;;;;;;;;;;;;16.56;55.40;100525.94;2087383;28;19924;-46
2022/03/20 01:13:11;;;;;;;;;;;;;;;16.56;55.35;100525.94;2093561;28;20333;-46
2022/03/20 01:14:13;;;;;;;;;;;;;;;16.55;55.48;100512.47;2086950;28;20632;-47
2022/03/20 01:15:15;;;;;;;;;;;;;;;16.56;55.57;100525.06;2081512;28;20237;-47
2022/03/20 01:16:15;;;;;;;;;;;;;;;16.55;55.60;100513.31;2085947;28;20346;-49
2022/03/20 01:17:16;;;;;;;;;;;;;;;16.57;55.47;100511.34;2076834;28;20195;-47
2022/03/20 01:18:16;;;;;;;;;;;;;;;16.55;55.43;100510.59;2091199;28;19935;-47
2022/03/20 01:19:16;;;;;;;;;;;;;;;16.57;55.52;100505.91;2093171;28;19927;-46
2022/03/20 01:20:16;;;;;;;;;;;;;;;16.58;55.45;100509.47;2089933;28;20401;-47
2022/03/20 01:21:17;;;;;;;;;;;;;;;16.56;55.65;100515.06;2093642;28;20236;-47
2022/03/20 01:22:18;;;;;;;;;;;;;;;16.58;55.49;100513.06;2093959;28;19962;-48
2022/03/20 01:23:21;;;;;;;;;;;;;;;16.59;55.46;100514.81;2092121;28;20217;-46
2022/03/20 01:24:22;;;;;;;;;;;;;;;16.59;55.22;100503.94;2090051;28;19924;-46
2022/03/20 01:25:22;;;;;;;;;;;;;;;16.59;55.48;100501.19;2089519;28;19928;-47
2022/03/20 01:26:23;;;;;;;;;;;;;;;16.60;55.52;100504.78;2093008;28;19927;-47
2022/03/20 01:27:23;;;;;;;;;;;;;;;16.61;55.47;100501.06;2091547;28;20285;-47
2022/03/20 01:28:24;;;;;;;;;;;;;;;16.60;55.29;100500.19;2092751;28;19920;-49
2022/03/20 01:29:24;;;;;;;;;;;;;;;16.61;55.47;100493.78;2100316;28;19968;-47
2022/03/20 01:30:24;;;;;;;;;;;;;;;16.61;55.22;100496.50;2089574;28;19931;-47
2022/03/20 01:31:24;;;;;;;;;;;;;;;16.60;55.48;100489.31;2087658;28;20765;-46
2022/03/20 01:32:26;;;;;;;;;;;;;;;16.60;55.38;100494.75;2092262;28;19924;-47
2022/03/20 01:33:26;;;;;;;;;;;;;;;16.62;55.29;100486.47;2090742;28;19924;-47
2022/03/20 01:34:27;;;;;;;;;;;;;;;16.61;55.34;100491.06;2081047;28;19917;-48
2022/03/20 01:35:27;;;;;;;;;;;;;;;16.62;55.39;100492.78;2081340;28;19953;-46
2022/03/20 01:36:27;;;;;;;;;;;;;;;16.61;55.20;100491.06;2090257;28;20303;-47
2022/03/20 01:37:28;;;;;;;;;;;;;;;16.62;55.41;100492.78;2082373;28;19925;-44
2022/03/20 01:38:28;;;;;;;;;;;;;;;16.61;55.33;100491.06;2080082;28;19946;-46
2022/03/20 01:39:28;;;;;;;;;;;;;;;16.60;55.32;100480.28;2093323;28;19931;-45
2022/03/20 01:40:29;;;;;;;;;;;;;;;16.61;55.43;100487.44;2089861;28;19912;-44
2022/03/20 01:41:29;;;;;;;;;;;;;;;16.61;55.26;100488.34;2090822;28;19968;-45
2022/03/20 01:42:30;;;;;;;;;;;;;;;16.61;55.39;100485.63;2099617;28;20042;-44
2022/03/20 01:43:30;;;;;;;;;;;;;;;16.60;55.33;100486.59;2089086;28;19973;-46
2022/03/20 01:44:35;;;;;;;;;;;;;;;16.59;55.29;100486.72;2094157;28;20337;-46
2022/03/20 01:45:35;;;;;;;;;;;;;;;16.62;55.08;100478.31;2087268;28;19928;-44
2022/03/20 01:46:36;;;;;;;;;;;;;;;16.61;55.32;100484.72;2089944;28;19945;-46
2022/03/20 01:47:36;;;;;;;;;;;;;;;16.59;55.34;100476.72;2090404;28;20543;-44
2022/03/20 01:48:36;;;;;;;;;;;;;;;16.59;55.45;100476.72;2093780;28;19919;-46
2022/03/20 01:49:37;;;;;;;;;;;;;;;16.60;55.38;100472.13;2091978;28;19948;-48
2022/03/20 01:50:38;;;;;;;;;;;;;;;16.59;55.26;100476.72;2097578;28;19927;-45
2022/03/20 01:52:59;;;;;;;;;;;;;;;16.59;55.10;100481.28;2093122;28;19920;-46
2022/03/20 01:53:59;;;;;;;;;;;;;;;16.59;55.33;100475.84;2092751;28;19912;-45
2022/03/20 01:55:01;;;;;;;;;;;;;;;16.59;55.29;100473.13;2087536;28;19923;-49
2022/03/20 01:56:01;;;;;;;;;;;;;;;16.60;55.38;100472.97;2092626;28;19954;-46
2022/03/20 01:57:02;;;;;;;;;;;;;;;16.58;55.13;100469.50;2091490;28;19965;-45
2022/03/20 01:58:02;;;;;;;;;;;;;;;16.58;55.34;100465.94;2089937;28;20928;-45
2022/03/20 01:59:05;;;;;;;;;;;;;;;16.58;55.31;100469.50;2098745;28;19923;-46
2022/03/20 02:00:06;;;;;;;;;;;;;;;16.59;55.48;100465.81;2094241;28;19923;-46
2022/03/20 02:01:06;;;;;;;;;;;;;;;16.58;55.33;100466.78;2092405;28;19916;-45
2022/03/20 02:02:07;;;;;;;;;;;;;;;16.59;55.50;100471.25;2093146;28;19920;-46
2022/03/20 02:03:07;;;;;;;;;;;;;;;16.60;55.41;100472.97;2091903;28;20370;-47
2022/03/20 02:04:11;;;;;;;;;;;;;;;16.58;55.60;100468.66;2093509;28;20482;-46
2022/03/20 02:05:12;;;;;;;;;;;;;;;16.58;55.35;100469.50;2090514;28;19943;-46
2022/03/20 02:06:13;;;;;;;;;;;;;;;16.59;55.14;100464.97;2092148;28;19955;-47
2022/03/20 02:07:13;;;;;;;;;;;;;;;16.59;55.34;100460.38;2094673;28;20249;-47
2022/03/20 02:08:14;;;;;;;;;;;;;;;16.60;55.36;100461.25;2087191;28;20043;-46
2022/03/20 02:09:15;;;;;;;;;;;;;;;16.60;55.23;100461.25;2094433;28;19915;-45
2022/03/20 02:10:15;;;;;;;;;;;;;;;16.60;55.30;100459.38;2090560;28;19916;-47
2022/03/20 02:11:16;;;;;;;;;;;;;;;16.60;55.28;100461.25;2092509;28;19914;-46
2022/03/20 02:12:16;;;;;;;;;;;;;;;16.59;55.29;100465.81;2090806;28;19926;-45
2022/03/20 02:13:19;;;;;;;;;;;;;;;16.60;55.27;100455.78;2086212;28;19988;-46
2022/03/20 02:14:20;;;;;;;;;;;;;;;16.60;55.30;100455.78;2090545;28;19927;-45
2022/03/20 02:15:20;;;;;;;;;;;;;;;16.58;55.29;100447.75;2090165;28;19928;-46
2022/03/20 02:16:21;;;;;;;;;;;;;;;16.60;55.33;100456.66;2086688;28;19920;-45
2022/03/20 02:17:21;;;;;;;;;;;;;;;16.60;55.29;100451.22;2089960;28;19950;-46
2022/03/20 02:18:23;;;;;;;;;;;;;;;16.59;55.41;100449.50;2086079;28;19927;-47
2022/03/20 02:19:24;;;;;;;;;;;;;;;16.60;55.21;100448.50;2084235;28;20761;-48
2022/03/20 02:20:24;;;;;;;;;;;;;;;16.60;55.35;100442.19;2075378;28;19931;-47
2022/03/20 02:21:39;;;;;;;;;;;;;;;16.60;55.10;100440.31;2082128;28;19921;-46
2022/03/20 02:22:40;;;;;;;;;;;;;;;16.60;55.21;100443.03;2088396;28;20306;-46
2022/03/20 02:23:41;;;;;;;;;;;;;;;16.60;55.33;100443.03;2098495;28;20006;-46
2022/03/20 02:24:44;;;;;;;;;;;;;;;16.61;55.38;100444.78;2089716;28;20538;-47
2022/03/20 02:25:48;;;;;;;;;;;;;;;16.62;55.17;100442.94;2095073;28;19965;-45
2022/03/20 02:26:49;;;;;;;;;;;;;;;16.61;55.16;100442.06;2086014;28;19989;-45
2022/03/20 02:27:49;;;;;;;;;;;;;;;16.62;55.22;100441.06;2089973;28;19916;-45
2022/03/20 02:28:50;;;;;;;;;;;;;;;16.62;55.35;100434.75;2092076;28;20289;-46
2022/03/20 02:29:52;;;;;;;;;;;;;;;16.60;55.16;100440.31;2091927;28;19912;-46
2022/03/20 02:30:52;;;;;;;;;;;;;;;16.62;55.16;100435.63;2090811;28;20303;-46
2022/03/20 02:31:52;;;;;;;;;;;;;;;16.62;55.08;100437.50;2092920;28;19916;-46
2022/03/20 02:32:53;;;;;;;;;;;;;;;16.61;55.31;100431.19;2086313;28;19923;-51
2022/03/20 02:33:53;;;;;;;;;;;;;;;16.61;55.08;100436.63;2091863;28;19916;-46
2022/03/20 02:34:58;;;;;;;;;;;;;;;16.63;55.28;100441.94;2089755;28;20323;-47
2022/03/20 02:35:58;;;;;;;;;;;;;;;16.62;55.25;100438.34;2090363;28;20355;-46
2022/03/20 02:37:00;;;;;;;;;;;;;;;16.63;55.00;100433.75;2093518;28;19920;-47
2022/03/20 02:38:01;;;;;;;;;;;;;;;16.63;55.07;100434.63;2093770;28;20342;-45
2022/03/20 02:39:03;;;;;;;;;;;;;;;16.62;55.24;100430.19;2096496;28;19924;-46
2022/03/20 02:40:04;;;;;;;;;;;;;;;16.62;55.04;100427.47;2092581;28;20681;-45
2022/03/20 02:41:14;;;;;;;;;;;;;;;16.64;55.32;100435.50;2091078;28;20624;-46
2022/03/20 02:42:15;;;;;;;;;;;;;;;16.63;55.17;100422.88;2087072;28;19920;-50
2022/03/20 02:43:17;;;;;;;;;;;;;;;16.63;55.25;100426.44;2080251;28;19919;-46
2022/03/20 02:44:17;;;;;;;;;;;;;;;16.64;55.12;100419.19;2077794;28;19921;-46
2022/03/20 02:45:22;;;;;;;;;;;;;;;16.64;55.12;100432.78;2091794;28;19924;-49
2022/03/20 02:46:22;;;;;;;;;;;;;;;16.63;55.18;100426.44;2081910;28;20504;-47
2022/03/20 02:47:23;;;;;;;;;;;;;;;16.62;55.27;100419.28;2081753;28;19954;-46
2022/03/20 02:48:24;;;;;;;;;;;;;;;16.61;55.03;100423.03;2095617;28;19920;-46
2022/03/20 02:49:24;;;;;;;;;;;;;;;16.62;55.11;100424.72;2094808;28;19920;-45
2022/03/20 02:50:29;;;;;;;;;;;;;;;16.62;55.23;100426.59;2089960;28;19926;-45
2022/03/20 02:51:29;;;;;;;;;;;;;;;16.62;55.19;100430.19;2088835;28;19920;-45
2022/03/20 02:52:32;;;;;;;;;;;;;;;16.61;55.46;100420.28;2086318;28;19920;-45
2022/03/20 02:53:34;;;;;;;;;;;;;;;16.60;55.22;100421.28;2092646;28;19919;-46
2022/03/20 02:54:35;;;;;;;;;;;;;;;16.61;55.28;100422.13;2092846;28;20020;-45
2022/03/20 02:55:36;;;;;;;;;;;;;;;16.60;55.30;100418.53;2091983;28;19924;-45
2022/03/20 02:56:36;;;;;;;;;;;;;;;16.60;55.31;100418.53;2091143;28;20525;-46
2022/03/20 02:57:37;;;;;;;;;;;;;;;16.60;55.27;100418.53;2095758;28;19919;-45
2022/03/20 02:58:37;;;;;;;;;;;;;;;16.59;55.33;100414.09;2089916;28;20003;-46
2022/03/20 02:59:37;;;;;;;;;;;;;;;16.60;55.21;100421.28;2091918;28;20541;-46
2022/03/20 03:00:39;;;;;;;;;;;;;;;16.60;55.42;100415.81;2086310;28;19924;-46
2022/03/20 03:01:39;;;;;;;;;;;;;;;16.60;55.20;100413.09;2086882;28;19942;-45
2022/03/20 03:02:45;;;;;;;;;;;;;;;16.60;55.13;100409.53;2091182;28;20539;-46
2022/03/20 03:03:45;;;;;;;;;;;;;;;16.59;55.32;100416.84;2090638;28;19947;-47
2022/03/20 03:04:46;;;;;;;;;;;;;;;16.59;55.40;100411.38;2089082;28;19919;-46
2022/03/20 03:05:47;;;;;;;;;;;;;;;16.59;55.22;100405.09;2090714;28;20532;-46
2022/03/20 03:06:47;;;;;;;;;;;;;;;16.59;55.36;100416.84;2084116;28;20319;-47
2022/03/20 03:11:46;;;;;;;;;;;;;;;16.60;55.42;100407.66;2098961;28;19928;-46
2022/03/20 03:12:46;;;;;;;;;;;;;;;16.60;55.48;100407.66;2088605;28;19924;-46
2022/03/20 03:13:47;;;;;;;;;;;;;;;16.60;55.31;100413.09;2095781;28;19919;-46
2022/03/20 03:16:07;;;;;;;;;;;;;;;16.62;55.23;100404.81;2086620;28;19972;-46
2022/03/20 03:17:08;;;;;;;;;;;;;;;16.62;55.20;100402.97;2085457;28;20374;-46
2022/03/20 03:18:08;;;;;;;;;;;;;;;16.61;55.18;100409.41;2085835;28;19916;-45
2022/03/20 03:19:12;;;;;;;;;;;;;;;16.63;55.15;100409.25;2092446;28;20350;-46
2022/03/20 03:20:13;;;;;;;;;;;;;;;16.63;55.19;100407.41;2089999;28;20544;-45
2022/03/20 03:21:14;;;;;;;;;;;;;;;16.64;55.20;100409.16;2087489;28;20371;-46
2022/03/20 03:22:14;;;;;;;;;;;;;;;16.64;55.08;100409.16;2091952;28;20204;-46
2022/03/20 03:23:15;;;;;;;;;;;;;;;16.65;55.16;100407.28;2093525;28;20085;-46
2022/03/20 03:24:15;;;;;;;;;;;;;;;16.64;55.04;100414.59;2090795;28;19920;-46
2022/03/20 03:25:17;;;;;;;;;;;;;;;16.65;55.10;100410.88;2088465;28;19917;-46
2022/03/20 03:26:17;;;;;;;;;;;;;;;16.65;55.14;100413.59;2096270;28;19916;-46
2022/03/20 03:27:18;;;;;;;;;;;;;;;16.66;55.25;100415.34;2092458;28;20660;-46
2022/03/20 03:28:18;;;;;;;;;;;;;;;16.66;55.10;100412.63;2095998;28;19924;-45
2022/03/20 03:29:18;;;;;;;;;;;;;;;16.64;55.29;100414.59;2090229;28;19931;-45
2022/03/20 03:30:19;;;;;;;;;;;;;;;16.65;55.10;100410.00;2090115;28;19973;-46
2022/03/20 03:31:19;;;;;;;;;;;;;;;16.65;55.16;100410.88;2094728;28;20000;-45
2022/03/20 03:32:19;;;;;;;;;;;;;;;16.64;55.11;100413.75;2088540;28;19978;-45
2022/03/20 03:33:21;;;;;;;;;;;;;;;16.64;55.23;100411.88;2091123;28;19970;-46
2022/03/20 03:35:44;;;;;;;;;;;;;;;16.63;55.12;100412.84;2088204;28;20385;-48
2022/03/20 03:36:44;;;;;;;;;;;;;;;16.63;55.23;100412.84;2091430;28;19920;-46
2022/03/20 03:37:44;;;;;;;;;;;;;;;16.63;55.20;100407.41;2090350;28;19942;-47
2022/03/20 03:38:44;;;;;;;;;;;;;;;16.63;54.96;100410.13;2089136;28;19939;-47
2022/03/20 03:39:45;;;;;;;;;;;;;;;16.64;55.20;100413.75;2095874;28;20019;-46
2022/03/20 03:40:46;;;;;;;;;;;;;;;16.63;55.33;100414.72;2089286;28;20356;-47
2022/03/20 03:41:46;;;;;;;;;;;;;;;16.62;55.15;100416.56;2088155;28;20270;-48
2022/03/20 03:42:47;;;;;;;;;;;;;;;16.62;55.15;100422.00;2080110;28;19967;-45
2022/03/20 03:43:47;;;;;;;;;;;;;;;16.61;55.26;100417.56;2089620;28;19920;-46
2022/03/20 03:44:51;;;;;;;;;;;;;;;16.60;55.13;100413.09;2088739;28;19925;-46
2022/03/20 03:45:53;;;;;;;;;;;;;;;16.61;54.97;100414.84;2085948;28;19928;-45
2022/03/20 03:46:57;;;;;;;;;;;;;;;16.60;54.99;100418.53;2081698;28;20405;-45
2022/03/20 03:47:58;;;;;;;;;;;;;;;16.61;55.17;100413.97;2081598;28;20394;-46
2022/03/20 03:48:58;;;;;;;;;;;;;;;16.62;55.24;100418.44;2090895;28;19912;-48
2022/03/20 03:49:58;;;;;;;;;;;;;;;16.62;55.25;100419.28;2086349;28;19952;-46
2022/03/20 03:50:59;;;;;;;;;;;;;;;16.61;55.21;100420.28;2092899;28;20007;-46
2022/03/20 03:52:00;;;;;;;;;;;;;;;16.61;55.38;100419.41;2091971;28;20328;-46
2022/03/20 03:53:00;;;;;;;;;;;;;;;16.61;55.22;100420.28;2083346;28;19982;-46
2022/03/20 03:54:01;;;;;;;;;;;;;;;16.61;55.25;100420.28;2083187;28;19927;-46
2022/03/20 03:55:02;;;;;;;;;;;;;;;16.60;55.23;100418.53;2087165;28;19920;-46
2022/03/20 03:56:03;;;;;;;;;;;;;;;16.61;55.03;100423.03;2098423;28;19975;-47
2022/03/20 03:57:03;;;;;;;;;;;;;;;16.61;55.29;100419.41;2090729;28;20230;-47
2022/03/20 03:58:04;;;;;;;;;;;;;;;16.61;55.22;100425.75;2091497;28;20139;-46
2022/03/20 03:59:04;;;;;;;;;;;;;;;16.60;55.29;100418.53;2091614;28;20011;-47
2022/03/20 04:00:05;;;;;;;;;;;;;;;16.61;55.12;100420.28;2091401;28;20326;-46
2022/03/20 04:01:07;;;;;;;;;;;;;;;16.61;55.22;100420.28;2091469;28;19920;-45
2022/03/20 04:02:07;;;;;;;;;;;;;;;16.60;55.40;100418.53;2082649;28;19924;-46
2022/03/20 04:03:08;;;;;;;;;;;;;;;16.61;55.16;100420.28;2080140;28;19913;-46
2022/03/20 04:04:08;;;;;;;;;;;;;;;16.61;55.13;100420.28;2094624;28;19919;-46
2022/03/20 04:05:09;;;;;;;;;;;;;;;16.62;55.13;100416.56;2091650;28;20306;-45
2022/03/20 04:06:09;;;;;;;;;;;;;;;16.62;55.22;100416.56;2090052;28;20011;-46
2022/03/20 04:07:10;;;;;;;;;;;;;;;16.62;55.14;100424.72;2085561;28;19921;-47
2022/03/20 04:08:10;;;;;;;;;;;;;;;16.62;55.19;100422.00;2088748;28;19920;-47
2022/03/20 04:09:10;;;;;;;;;;;;;;;16.64;55.09;100424.63;2101787;28;19915;-47
2022/03/20 04:10:11;;;;;;;;;;;;;;;16.63;55.19;100420.16;2087437;28;20586;-45
2022/03/20 04:11:12;;;;;;;;;;;;;;;16.63;55.18;100417.44;2099620;28;20346;-47
2022/03/20 04:12:13;;;;;;;;;;;;;;;16.63;55.28;100420.16;2085091;28;19925;-46
2022/03/20 04:13:14;;;;;;;;;;;;;;;16.63;55.28;100421.00;2089366;28;20308;-45
2022/03/20 04:14:14;;;;;;;;;;;;;;;16.64;55.21;100424.63;2099073;28;19919;-46
2022/03/20 04:15:16;;;;;;;;;;;;;;;16.63;55.28;100423.72;2092706;28;20339;-45
2022/03/20 04:16:16;;;;;;;;;;;;;;;16.64;55.13;100420.03;2083145;28;19920;-47
2022/03/20 04:17:16;;;;;;;;;;;;;;;16.64;55.33;100425.47;2075291;28;19920;-45
2022/03/20 04:18:17;;;;;;;;;;;;;;;16.64;55.30;100425.47;2089148;28;19939;-49
2022/03/20 04:19:17;;;;;;;;;;;;;;;16.63;55.22;100426.44;2091829;28;20428;-46
2022/03/20 04:20:17;;;;;;;;;;;;;;;16.64;55.22;100419.19;2087100;28;19926;-45
2022/03/20 04:21:18;;;;;;;;;;;;;;;16.64;55.25;100424.63;2100146;28;20856;-45
2022/03/20 04:22:18;;;;;;;;;;;;;;;16.63;55.21;100431.03;2088562;28;20365;-46
2022/03/20 04:24:37;;;;;;;;;;;;;;;16.63;55.40;100434.63;2090229;28;20648;-46
2022/03/20 04:25:41;;;;;;;;;;;;;;;16.64;55.19;100430.94;2088167;28;19928;-46
2022/03/20 04:26:44;;;;;;;;;;;;;;;16.63;55.13;100421.00;2089926;28;19915;-46
2022/03/20 04:27:45;;;;;;;;;;;;;;;16.63;55.20;100423.72;2092468;28;19916;-46
2022/03/20 04:28:51;;;;;;;;;;;;;;;16.64;55.17;100425.47;2088695;28;20856;-46
2022/03/20 04:29:52;;;;;;;;;;;;;;;16.63;55.31;100431.91;2092488;28;19920;-46
2022/03/20 04:30:53;;;;;;;;;;;;;;;16.63;55.27;100429.16;2093127;28;19915;-46
2022/03/20 04:31:54;;;;;;;;;;;;;;;16.64;55.14;100427.34;2091291;28;19920;-46
2022/03/20 04:32:55;;;;;;;;;;;;;;;16.64;55.36;100436.38;2096969;28;19915;-46
2022/03/20 04:33:56;;;;;;;;;;;;;;;16.64;55.31;100444.53;2085555;28;19927;-50
2022/03/20 04:34:56;;;;;;;;;;;;;;;16.63;55.14;100439.19;2089411;28;19943;-46
2022/03/20 04:35:57;;;;;;;;;;;;;;;16.64;55.19;100427.34;2096382;28;20316;-46
2022/03/20 04:36:57;;;;;;;;;;;;;;;16.62;55.13;100432.91;2091031;28;20249;-46
2022/03/20 04:37:57;;;;;;;;;;;;;;;16.63;55.23;100434.63;2094336;28;19920;-47
2022/03/20 04:39:01;;;;;;;;;;;;;;;16.63;55.30;100436.47;2087383;28;19916;-46
2022/03/20 04:40:02;;;;;;;;;;;;;;;16.63;55.19;100426.44;2091523;28;19916;-46
2022/03/20 04:41:02;;;;;;;;;;;;;;;16.62;55.08;100430.19;2084651;28;19912;-45
2022/03/20 04:42:03;;;;;;;;;;;;;;;16.63;55.24;100434.63;2088515;28;19912;-46
2022/03/20 04:43:04;;;;;;;;;;;;;;;16.64;55.13;100435.50;2093098;28;20043;-45
2022/03/20 04:44:06;;;;;;;;;;;;;;;16.63;55.24;100423.72;2089673;28;19924;-45
2022/03/20 04:45:07;;;;;;;;;;;;;;;16.63;55.21;100431.91;2091308;28;20734;-45
2022/03/20 04:46:07;;;;;;;;;;;;;;;16.63;55.17;100437.34;2091389;28;20620;-49
2022/03/20 04:59:16;;;;;;;;;;;;;;;16.63;55.30;100415.56;2094276;28;19916;-47
2022/03/20 05:00:18;;;;;;;;;;;;;;;16.62;55.17;100419.28;2093669;28;20364;-46
2022/03/20 05:01:18;;;;;;;;;;;;;;;16.62;55.15;100413.84;2096596;28;19927;-46
2022/03/20 05:02:18;;;;;;;;;;;;;;;16.64;55.17;100422.75;2088390;28;19919;-45
2022/03/20 05:03:19;;;;;;;;;;;;;;;16.64;55.01;100420.03;2084011;28;20302;-46
2022/03/20 05:04:19;;;;;;;;;;;;;;;16.65;55.40;100427.19;2094019;28;20362;-45
2022/03/20 05:05:20;;;;;;;;;;;;;;;16.64;55.21;100425.47;2087279;28;19916;-45
2022/03/20 05:06:20;;;;;;;;;;;;;;;16.64;55.23;100414.59;2087090;28;19916;-46
2022/03/20 05:07:20;;;;;;;;;;;;;;;16.65;55.18;100418.19;2088577;28;19943;-46
2022/03/20 05:08:21;;;;;;;;;;;;;;;16.65;55.03;100415.44;2089021;28;19990;-46
2022/03/20 05:13:21;;;;;;;;;;;;;;;16.65;55.25;100419.03;2093487;28;19921;-48
2022/03/20 05:14:21;;;;;;;;;;;;;;;16.65;55.33;100420.91;2090769;28;20320;-46
2022/03/20 05:15:21;;;;;;;;;;;;;;;16.65;55.37;100419.03;2081955;28;19920;-47
2022/03/20 05:16:21;;;;;;;;;;;;;;;16.65;55.46;100421.75;2089571;28;19912;-50
2022/03/20 05:17:22;;;;;;;;;;;;;;;16.65;54.99;100427.19;2085266;28;19947;-47
2022/03/20 05:18:22;;;;;;;;;;;;;;;16.66;55.16;100426.22;2093291;28;19971;-47
2022/03/20 05:19:23;;;;;;;;;;;;;;;16.66;55.10;100418.06;2092506;28;19927;-48
2022/03/20 05:20:25;;;;;;;;;;;;;;;16.67;55.14;100422.50;2088907;28;19954;-47
2022/03/20 05:21:26;;;;;;;;;;;;;;;16.67;55.22;100425.22;2093351;28;19943;-50
2022/03/20 05:22:26;;;;;;;;;;;;;;;16.68;55.40;100420.63;2076299;28;19925;-46
2022/03/20 05:23:26;;;;;;;;;;;;;;;16.68;55.36;100426.97;2085424;28;20108;-47
2022/03/20 05:24:27;;;;;;;;;;;;;;;16.67;55.27;100421.63;2101452;28;19919;-46
2022/03/20 05:25:30;;;;;;;;;;;;;;;16.67;55.11;100430.66;2089018;28;19977;-48
2022/03/20 05:26:31;;;;;;;;;;;;;;;16.67;55.17;100422.50;2100440;28;20304;-46
2022/03/20 05:27:31;;;;;;;;;;;;;;;16.66;55.22;100422.66;2092248;28;19919;-48
2022/03/20 05:28:31;;;;;;;;;;;;;;;16.66;55.19;100418.06;2090918;28;19923;-47
2022/03/20 05:29:32;;;;;;;;;;;;;;;16.65;55.39;100421.75;2101683;28;19916;-47
2022/03/20 05:30:33;;;;;;;;;;;;;;;16.65;55.27;100427.19;2092503;28;19920;-46
2022/03/20 05:31:33;;;;;;;;;;;;;;;16.65;55.38;100420.91;2092984;28;19927;-47
2022/03/20 05:32:35;;;;;;;;;;;;;;;16.64;55.45;100430.94;2084770;28;19917;-46
2022/03/20 05:33:35;;;;;;;;;;;;;;;16.65;55.04;100424.47;2089672;28;19924;-44
2022/03/20 05:34:37;;;;;;;;;;;;;;;16.64;55.23;100425.47;2100819;28;19916;-48
2022/03/20 05:35:38;;;;;;;;;;;;;;;16.63;55.15;100429.16;2093837;28;20276;-47
2022/03/20 05:36:39;;;;;;;;;;;;;;;16.64;55.30;100424.63;2097968;28;20125;-47
2022/03/20 05:37:39;;;;;;;;;;;;;;;16.63;55.33;100440.06;2099434;28;19919;-47